Upper Freehold, New Jersey
Current Conditions -  °F | °C
As of 7:58 PM on Tuesday 25 Nov 2014 (Local Time) from KWRI Reporting Station
Broken Clouds Broken Clouds  
Wind Chill: 46°   Ceiling: 19000
Heat Index: 46°   Visibility: 10mi
Dew Point: 32°   Wind: 3mph
Humidity: 59%   Direction: 240°WSW
Pressure: 30.1"   Gusts: NA
Location:  40.1432°N, 74.5751°W
Report Text: KWRI 260058Z AUTO 24003KT 10SM BKN190 08/00 A3010 RMK AO2 SLP196 T00780002
Loading
Personal Weather Stations






























Interactive Weather Map New forecast layout! Learn more

10-Day Weather Forecast

Advertisements
Track Severe Weather on mobile